Time,TemperatureF,DewpointF,PressureIn,WindDirection,WindDirectionDegrees,WindSpeedMPH,WindSpeedGustMPH,Humidity,HourlyPrecipIn,Conditions,Clouds,dailyrainin,SolarRadiationWatts/m^2,SoftwareType,DateUTC
2013-05-16 00:24:00,69.0,69.0,-100.00,ENE,73,8.0,17.0,99,0.11,,,0.49,0.000000,,2013-05-16 10:24:00,
2013-05-16 00:35:00,69.0,69.0,-100.00,ENE,73,8.0,17.0,99,0.11,,,0.49,0.000000,,2013-05-16 10:35:00,
2013-05-16 00:45:00,69.0,69.0,-100.00,ENE,73,8.0,17.0,99,0.11,,,0.49,0.000000,,2013-05-16 10:45:00,
2013-05-16 00:56:00,69.0,69.0,-100.00,ENE,73,8.0,17.0,99,0.11,,,0.49,0.000000,,2013-05-16 10:56:00,
2013-05-16 01:25:00,69.0,69.0,-100.00,ENE,77,5.0,17.0,99,0.01,,,0.50,0.000000,,2013-05-16 11:25:00,
2013-05-16 01:35:00,69.0,69.0,-100.00,ENE,77,5.0,17.0,99,0.01,,,0.50,0.000000,,2013-05-16 11:35:00,
2013-05-16 01:46:00,69.0,69.0,-100.00,ENE,77,5.0,17.0,99,0.01,,,0.50,0.000000,,2013-05-16 11:46:00,
2013-05-16 01:56:00,69.0,69.0,-100.00,ENE,77,5.0,17.0,99,0.01,,,0.50,0.000000,,2013-05-16 11:56:00,
2013-05-16 02:23:00,67.0,66.0,-100.00,North,-999,-999.0,-999.0,98,0.04,,,0.54,0.000000,,2013-05-16 12:23:00,
2013-05-16 02:34:00,67.0,66.0,-100.00,North,-999,-999.0,-999.0,98,0.04,,,0.54,0.000000,,2013-05-16 12:34:00,
2013-05-16 02:45:00,67.0,66.0,-100.00,North,-999,-999.0,-999.0,98,0.04,,,0.54,0.000000,,2013-05-16 12:45:00,
2013-05-16 02:53:00,67.0,66.0,-100.00,North,-999,-999.0,-999.0,98,0.04,,,0.54,0.000000,,2013-05-16 12:53:00,
2013-05-16 03:26:00,68.0,68.0,-100.00,East,79,6.0,-999.0,100,0.08,,,0.62,0.000000,,2013-05-16 13:26:00,
2013-05-16 03:35:00,68.0,68.0,-100.00,East,79,6.0,-999.0,100,0.08,,,0.62,0.000000,,2013-05-16 13:35:00,
2013-05-16 03:43:00,68.0,68.0,-100.00,East,79,6.0,-999.0,100,0.08,,,0.62,0.000000,,2013-05-16 13:43:00,
2013-05-16 03:54:00,68.0,68.0,-100.00,East,79,6.0,-999.0,100,0.08,,,0.62,0.000000,,2013-05-16 13:54:00,
2013-05-16 04:23:00,68.0,68.0,-100.00,North,-999,-999.0,-999.0,99,0.17,,,0.79,0.000000,,2013-05-16 14:23:00,
2013-05-16 04:37:00,68.0,68.0,-100.00,North,-999,-999.0,-999.0,99,0.17,,,0.79,0.000000,,2013-05-16 14:37:00,
2013-05-16 04:47:00,68.0,68.0,-100.00,North,-999,-999.0,-999.0,99,0.17,,,0.79,0.000000,,2013-05-16 14:47:00,
2013-05-16 04:55:00,68.0,68.0,-100.00,North,-999,-999.0,-999.0,99,0.17,,,0.79,0.000000,,2013-05-16 14:55:00,
2013-05-16 04:58:00,67.0,66.0,-100.00,North,-999,-999.0,-999.0,97,0.05,,,0.84,0.000000,,2013-05-16 14:58:00,
2013-05-16 05:28:00,67.0,66.0,-100.00,North,-999,-999.0,-999.0,97,0.05,,,0.84,0.000000,,2013-05-16 15:28:00,
2013-05-16 05:40:00,67.0,66.0,-100.00,North,-999,-999.0,-999.0,97,0.05,,,0.84,0.000000,,2013-05-16 15:40:00,
2013-05-16 05:50:00,67.0,66.0,-100.00,North,-999,-999.0,-999.0,97,0.05,,,0.84,0.000000,,2013-05-16 15:50:00,
2013-05-16 05:58:00,68.0,67.0,-100.00,North,-999,-999.0,-999.0,96,0.01,,,0.85,0.000000,,2013-05-16 15:58:00,
2013-05-16 06:30:00,68.0,67.0,-100.00,North,-999,-999.0,-999.0,96,0.01,,,0.85,0.000000,,2013-05-16 16:30:00,
2013-05-16 06:40:00,68.0,-99.9,-100.00,North,-999,-999.0,-999.0,96,0.01,,,0.85,0.000000,,2013-05-16 16:40:00,
2013-05-16 06:50:00,68.0,67.0,-100.00,North,-999,-999.0,-999.0,96,0.01,,,0.85,0.000000,,2013-05-16 16:50:00,
2013-05-16 06:58:00,68.0,-99.9,-100.00,North,-999,-999.0,-999.0,95,0.01,,,0.86,22.000000,,2013-05-16 16:58:00,
2013-05-16 07:30:00,68.0,67.0,-100.00,North,-999,-999.0,-999.0,95,0.01,,,0.86,22.000000,,2013-05-16 17:30:00,
2013-05-16 07:40:00,68.0,67.0,-100.00,North,-999,-999.0,-999.0,95,0.01,,,0.86,22.000000,,2013-05-16 17:40:00,
2013-05-16 07:50:00,68.0,-99.9,-100.00,North,-999,-999.0,-999.0,95,0.01,,,0.86,22.000000,,2013-05-16 17:50:00,
2013-05-16 08:58:00,70.0,-99.9,-100.00,North,-999,-999.0,-999.0,86,0.00,,,0.87,211.000000,,2013-05-16 18:58:00,
2013-05-16 09:30:00,70.0,66.0,-100.00,North,-999,-999.0,-999.0,86,0.00,,,0.87,211.000000,,2013-05-16 19:30:00,
2013-05-16 09:40:00,70.0,-99.9,-100.00,North,-999,-999.0,-999.0,86,0.00,,,0.87,211.000000,,2013-05-16 19:40:00,
2013-05-16 09:58:00,75.0,67.0,-100.00,North,-999,-999.0,-999.0,77,0.00,,,0.87,508.000000,,2013-05-16 19:58:00,
2013-05-16 10:30:00,75.0,67.0,-100.00,North,-999,-999.0,-999.0,77,0.00,,,0.87,508.000000,,2013-05-16 20:30:00,
2013-05-16 10:50:00,75.0,67.0,-100.00,North,-999,-999.0,-999.0,77,0.00,,,0.87,508.000000,,2013-05-16 20:50:00,
2013-05-16 11:29:00,77.0,65.0,-100.00,North,-999,-999.0,-999.0,67,0.00,,,0.87,1083.000000,,2013-05-16 21:29:00,
2013-05-16 11:38:00,77.0,65.0,-100.00,North,-999,-999.0,-999.0,67,0.00,,,0.87,1083.000000,,2013-05-16 21:38:00,
2013-05-16 11:50:00,77.0,-99.9,-100.00,North,-999,-999.0,-999.0,67,0.00,,,0.87,1083.000000,,2013-05-16 21:50:00,
2013-05-16 11:58:00,78.0,67.0,-100.00,North,-999,-999.0,-999.0,69,0.00,,,0.87,1120.000000,,2013-05-16 21:58:00,
2013-05-16 12:30:00,78.0,67.0,-100.00,North,-999,-999.0,-999.0,69,0.00,,,0.87,1120.000000,,2013-05-16 22:30:00,
2013-05-16 12:40:00,78.0,67.0,-100.00,North,-999,-999.0,-999.0,69,0.00,,,0.87,1120.000000,,2013-05-16 22:40:00,
2013-05-16 12:50:00,78.0,67.0,-100.00,North,-999,-999.0,-999.0,69,0.00,,,0.87,1120.000000,,2013-05-16 22:50:00,
2013-05-16 13:24:00,78.0,67.0,-100.00,North,-999,-999.0,-999.0,69,0.00,,,0.87,1131.000000,,2013-05-16 23:24:00,
2013-05-16 13:35:00,78.0,67.0,-100.00,North,-999,-999.0,-999.0,69,0.00,,,0.87,1131.000000,,2013-05-16 23:35:00,
2013-05-16 13:45:00,78.0,67.0,-100.00,North,-999,-999.0,-999.0,69,0.00,,,0.87,1131.000000,,2013-05-16 23:45:00,
2013-05-16 13:54:00,78.0,67.0,-100.00,North,-999,-999.0,-999.0,69,0.00,,,0.87,1131.000000,,2013-05-16 23:54:00,
2013-05-16 14:22:00,78.0,65.0,-100.00,North,-999,-999.0,-999.0,64,0.00,,,0.87,1162.000000,,2013-05-17 00:22:00,
2013-05-16 14:33:00,78.0,65.0,-100.00,North,-999,-999.0,-999.0,64,0.00,,,0.87,1162.000000,,2013-05-17 00:33:00,
2013-05-16 14:43:00,78.0,65.0,-100.00,North,-999,-999.0,-999.0,64,0.00,,,0.87,1162.000000,,2013-05-17 00:43:00,
2013-05-16 14:52:00,78.0,65.0,-100.00,North,-999,-999.0,-999.0,64,0.00,,,0.87,1162.000000,,2013-05-17 00:52:00,
2013-05-16 15:23:00,78.0,65.0,-100.00,North,-999,-999.0,-999.0,64,0.00,,,0.87,1089.000000,,2013-05-17 01:23:00,
2013-05-16 15:32:00,78.0,65.0,-100.00,North,-999,-999.0,-999.0,64,0.00,,,0.87,1089.000000,,2013-05-17 01:32:00,
2013-05-16 15:43:00,78.0,65.0,-100.00,North,-999,-999.0,-999.0,64,0.00,,,0.87,1089.000000,,2013-05-17 01:43:00,
2013-05-16 15:52:00,78.0,65.0,-100.00,North,-999,-999.0,-999.0,64,0.00,,,0.87,1089.000000,,2013-05-17 01:52:00,
2013-05-16 16:21:00,77.0,67.0,-100.00,North,-999,-999.0,-999.0,72,0.00,,,0.87,852.000000,,2013-05-17 02:21:00,
2013-05-16 16:32:00,77.0,67.0,-100.00,North,-999,-999.0,-999.0,72,0.00,,,0.87,852.000000,,2013-05-17 02:32:00,
2013-05-16 16:42:00,77.0,67.0,-100.00,North,-999,-999.0,-999.0,72,0.00,,,0.87,852.000000,,2013-05-17 02:42:00,
2013-05-16 16:52:00,77.0,67.0,-100.00,North,-999,-999.0,-999.0,72,0.00,,,0.87,852.000000,,2013-05-17 02:52:00,
2013-05-16 17:22:00,77.0,66.0,-100.00,North,-999,-999.0,-999.0,70,0.00,,,0.86,588.000000,,2013-05-17 03:22:00,
2013-05-16 17:34:00,77.0,66.0,-100.00,North,-999,-999.0,-999.0,70,0.00,,,0.86,588.000000,,2013-05-17 03:34:00,
2013-05-16 17:43:00,77.0,66.0,-100.00,North,-999,-999.0,-999.0,70,0.00,,,0.86,588.000000,,2013-05-17 03:43:00,
2013-05-16 17:53:00,77.0,66.0,-100.00,North,-999,-999.0,-999.0,70,0.00,,,0.86,588.000000,,2013-05-17 03:53:00,
2013-05-16 18:23:00,73.0,64.0,-100.00,North,-999,-999.0,-999.0,74,0.00,,,0.83,100.000000,,2013-05-17 04:23:00,
2013-05-16 18:33:00,73.0,64.0,-100.00,North,-999,-999.0,-999.0,74,0.00,,,0.83,100.000000,,2013-05-17 04:33:00,
2013-05-16 18:43:00,73.0,64.0,-100.00,North,-999,-999.0,-999.0,74,0.00,,,0.83,100.000000,,2013-05-17 04:43:00,
2013-05-16 18:53:00,73.0,64.0,-100.00,North,-999,-999.0,-999.0,74,0.00,,,0.83,100.000000,,2013-05-17 04:53:00,
2013-05-16 19:22:00,69.0,64.0,-100.00,North,-999,-999.0,-999.0,83,0.00,,,0.76,42.000000,,2013-05-17 05:22:00,
2013-05-16 19:32:00,69.0,64.0,-100.00,North,-999,-999.0,-999.0,83,0.00,,,0.76,42.000000,,2013-05-17 05:32:00,
2013-05-16 19:42:00,69.0,64.0,-100.00,North,-999,-999.0,-999.0,83,0.00,,,0.76,42.000000,,2013-05-17 05:42:00,
2013-05-16 19:52:00,69.0,64.0,-100.00,North,-999,-999.0,-999.0,83,0.00,,,0.76,42.000000,,2013-05-17 05:52:00,
2013-05-16 20:21:00,69.0,67.0,-100.00,North,-999,-999.0,-999.0,92,0.00,,,0.69,1.000000,,2013-05-17 06:21:00,
2013-05-16 20:32:00,69.0,67.0,-100.00,North,-999,-999.0,-999.0,92,0.00,,,0.69,1.000000,,2013-05-17 06:32:00,
2013-05-16 20:42:00,69.0,67.0,-100.00,North,-999,-999.0,-999.0,92,0.00,,,0.69,1.000000,,2013-05-17 06:42:00,
2013-05-16 20:51:00,69.0,67.0,-100.00,North,-999,-999.0,-999.0,92,0.00,,,0.69,1.000000,,2013-05-17 06:51:00,
2013-05-16 21:21:00,67.0,66.0,-100.00,North,-999,-999.0,-999.0,95,0.02,,,0.61,0.000000,,2013-05-17 07:21:00,
2013-05-16 21:32:00,67.0,66.0,-100.00,North,-999,-999.0,-999.0,95,0.02,,,0.61,0.000000,,2013-05-17 07:32:00,
2013-05-16 21:43:00,67.0,66.0,-100.00,North,-999,-999.0,-999.0,95,0.02,,,0.61,0.000000,,2013-05-17 07:43:00,
2013-05-16 21:53:00,67.0,66.0,-100.00,North,-999,-999.0,-999.0,95,0.02,,,0.61,0.000000,,2013-05-17 07:53:00,
2013-05-16 22:22:00,68.0,67.0,-100.00,North,-999,-999.0,-999.0,95,0.02,,,0.56,0.000000,,2013-05-17 08:22:00,
2013-05-16 22:33:00,68.0,67.0,-100.00,North,-999,-999.0,-999.0,95,0.02,,,0.56,0.000000,,2013-05-17 08:33:00,
2013-05-16 22:42:00,68.0,67.0,-100.00,North,-999,-999.0,-999.0,95,0.02,,,0.56,0.000000,,2013-05-17 08:42:00,
2013-05-16 22:51:00,68.0,67.0,-100.00,North,-999,-999.0,-999.0,95,0.02,,,0.56,0.000000,,2013-05-17 08:51:00,
2013-05-16 23:22:00,67.0,66.0,-100.00,North,-999,-999.0,-999.0,96,0.02,,,0.55,0.000000,,2013-05-17 09:22:00,
2013-05-16 23:33:00,67.0,66.0,-100.00,North,-999,-999.0,-999.0,96,0.02,,,0.55,0.000000,,2013-05-17 09:33:00,
2013-05-16 23:42:00,67.0,66.0,-100.00,North,-999,-999.0,-999.0,96,0.02,,,0.55,0.000000,,2013-05-17 09:42:00,
2013-05-16 23:53:00,67.0,66.0,-100.00,North,-999,-999.0,-999.0,96,0.02,,,0.55,0.000000,,2013-05-17 09:53:00,